Time;durP1;ratioP1;P1;durP2;ratioP2;P2;SDS_P1;SDS_P2;PMS_P1;PMS_P2;Temp;Humidity;BMP_temperature;BMP_pressure;BME280_temperature;BME280_humidity;BME280_pressure;Samples;Min_cycle;Max_cycle;Signal;HPM_P1;HPM_P2
2024/04/24 00:01:22;;;;;;;10.82;2.10;;;5.00;99.90;;;;;;5329200;26;20009;-79
2024/04/24 00:03:48;;;;;;;9.55;2.95;;;5.00;99.90;;;;;;5337566;26;20049;-80
2024/04/24 00:06:15;;;;;;;10.13;2.30;;;5.10;99.90;;;;;;5329911;26;20479;-79
2024/04/24 00:08:42;;;;;;;10.60;2.28;;;5.00;99.90;;;;;;5336867;26;20414;-79
2024/04/24 00:11:07;;;;;;;7.65;2.10;;;5.00;99.90;;;;;;5336642;26;20009;-79
2024/04/24 00:13:33;;;;;;;9.48;2.15;;;5.00;99.90;;;;;;5337447;26;20024;-79
2024/04/24 00:15:59;;;;;;;7.10;1.83;;;5.00;99.90;;;;;;5338457;26;20078;-80
2024/04/24 00:18:25;;;;;;;8.10;2.17;;;5.00;99.90;;;;;;5333506;26;20017;-80
2024/04/24 00:20:54;;;;;;;7.43;2.10;;;5.00;99.90;;;;;;5338503;26;20410;-80
2024/04/24 00:23:20;;;;;;;8.20;2.28;;;5.00;99.90;;;;;;5331029;26;20009;-80
2024/04/24 00:25:46;;;;;;;9.02;1.83;;;4.90;99.90;;;;;;5334283;26;20356;-80
2024/04/24 00:28:12;;;;;;;7.68;2.10;;;5.00;99.90;;;;;;5327289;26;20461;-79
2024/04/24 00:30:38;;;;;;;11.65;2.50;;;4.90;99.90;;;;;;5335315;26;20005;-80
2024/04/24 00:33:04;;;;;;;9.52;2.22;;;5.00;99.90;;;;;;5332961;26;20037;-80
2024/04/24 00:35:30;;;;;;;8.70;2.00;;;5.00;99.90;;;;;;5338266;26;20019;-80
2024/04/24 00:37:56;;;;;;;8.45;2.17;;;4.90;99.90;;;;;;5339261;26;20008;-80
2024/04/24 00:40:22;;;;;;;11.77;2.65;;;4.80;99.90;;;;;;5333046;26;20063;-80
2024/04/24 00:42:51;;;;;;;9.40;2.08;;;4.80;99.90;;;;;;5340001;26;20017;-80
2024/04/24 00:45:17;;;;;;;8.48;1.98;;;4.80;99.90;;;;;;5333136;26;20023;-80
2024/04/24 00:47:43;;;;;;;9.98;2.20;;;4.80;99.90;;;;;;5334184;26;20024;-80
2024/04/24 00:50:12;;;;;;;10.05;2.30;;;4.70;99.90;;;;;;5329876;26;20025;-79
2024/04/24 00:52:43;;;;;;;7.75;2.10;;;4.70;99.90;;;;;;5335628;26;20052;-80
2024/04/24 00:55:09;;;;;;;9.90;2.10;;;4.60;99.90;;;;;;5330912;26;20016;-80
2024/04/24 00:57:35;;;;;;;9.57;2.30;;;4.60;99.90;;;;;;5334729;26;20000;-80
2024/04/24 01:00:02;;;;;;;8.70;2.28;;;4.60;99.90;;;;;;5362412;26;20005;-80
2024/04/24 01:02:28;;;;;;;7.72;2.03;;;4.60;99.90;;;;;;5335334;26;20041;-80
2024/04/24 01:04:54;;;;;;;10.80;2.33;;;4.50;99.90;;;;;;5328789;26;20457;-80
2024/04/24 01:07:20;;;;;;;7.35;1.80;;;4.50;99.90;;;;;;5332887;26;20090;-79
2024/04/24 01:09:46;;;;;;;11.52;2.20;;;4.50;99.90;;;;;;5325665;26;20021;-80
2024/04/24 01:12:11;;;;;;;6.82;1.67;;;4.40;99.90;;;;;;5329724;26;20033;-80
2024/04/24 01:14:37;;;;;;;10.60;2.20;;;4.40;99.90;;;;;;5331926;26;20684;-79
2024/04/24 01:17:05;;;;;;;10.20;2.35;;;4.40;99.90;;;;;;5331966;26;20005;-79
2024/04/24 01:19:46;;;;;;;7.78;1.92;;;4.30;99.90;;;;;;5328360;26;20460;-79
2024/04/24 01:22:36;;;;;;;7.32;1.60;;;4.30;99.90;;;;;;5333080;26;20012;-80
2024/04/24 01:25:23;;;;;;;3.53;1.25;;;4.30;99.90;;;;;;5325542;26;20001;-79
2024/04/24 01:27:50;;;;;;;8.10;2.28;;;4.20;99.90;;;;;;5335388;26;20355;-80
2024/04/24 01:30:16;;;;;;;8.25;1.83;;;4.30;99.90;;;;;;5328560;26;20026;-79
2024/04/24 01:32:42;;;;;;;10.90;2.30;;;4.30;99.90;;;;;;5332795;26;20001;-79
2024/04/24 01:35:08;;;;;;;8.50;2.17;;;4.30;99.90;;;;;;5331005;26;20019;-79
2024/04/24 01:37:34;;;;;;;8.70;1.80;;;4.20;99.90;;;;;;5334615;26;20440;-80
2024/04/24 01:40:00;;;;;;;7.13;1.85;;;4.20;99.90;;;;;;5330587;26;20008;-79
2024/04/24 01:42:26;;;;;;;10.75;1.92;;;4.30;99.90;;;;;;5340079;26;20009;-80
2024/04/24 01:44:51;;;;;;;11.60;2.55;;;4.20;99.90;;;;;;5331356;26;20009;-79
2024/04/24 01:47:17;;;;;;;10.38;2.08;;;4.30;99.90;;;;;;5335838;26;20004;-79
2024/04/24 01:49:43;;;;;;;10.73;2.40;;;4.30;99.90;;;;;;5333494;26;20855;-80
2024/04/24 01:52:09;;;;;;;9.10;2.30;;;4.30;99.90;;;;;;5335423;26;19997;-80
2024/04/24 01:54:36;;;;;;;12.10;2.75;;;4.30;99.90;;;;;;5334292;26;20005;-82
2024/04/24 01:57:02;;;;;;;10.82;2.20;;;4.30;99.90;;;;;;5328285;26;20032;-80
2024/04/24 01:59:28;;;;;;;14.43;2.70;;;4.40;99.90;;;;;;5329708;26;20809;-80
2024/04/24 02:01:54;;;;;;;10.60;2.40;;;4.40;99.90;;;;;;5326738;26;20019;-81
2024/04/24 02:04:22;;;;;;;9.02;1.67;;;4.40;99.90;;;;;;5321705;26;20005;-81
2024/04/24 02:06:47;;;;;;;12.07;2.50;;;4.40;99.90;;;;;;5338752;26;20344;-81
2024/04/24 02:09:13;;;;;;;12.70;2.55;;;4.40;99.90;;;;;;5324984;26;20001;-80
2024/04/24 02:11:39;;;;;;;12.55;2.47;;;4.40;99.90;;;;;;5336901;26;20005;-80
2024/04/24 02:14:05;;;;;;;11.18;2.67;;;4.40;99.90;;;;;;5334315;26;20020;-80
2024/04/24 02:16:31;;;;;;;12.15;2.30;;;4.40;99.90;;;;;;5333888;26;20471;-81
2024/04/24 02:18:59;;;;;;;13.32;3.00;;;4.40;99.90;;;;;;5338541;26;20009;-81
2024/04/24 02:21:24;;;;;;;9.82;2.65;;;4.30;99.90;;;;;;5334175;26;20033;-80
2024/04/24 02:23:51;;;;;;;14.23;3.03;;;4.30;99.90;;;;;;5334347;26;20009;-80
2024/04/24 02:26:17;;;;;;;12.43;2.70;;;4.30;99.90;;;;;;5334219;26;19997;-80
2024/04/24 02:28:43;;;;;;;9.43;2.50;;;4.40;99.90;;;;;;5336694;26;20009;-80
2024/04/24 02:31:09;;;;;;;13.13;2.75;;;4.40;99.90;;;;;;5358414;26;20016;-80
2024/04/24 02:33:36;;;;;;;16.30;2.90;;;4.40;99.90;;;;;;5333517;26;20001;-79
2024/04/24 02:36:02;;;;;;;16.67;3.00;;;4.40;99.90;;;;;;5336944;26;20015;-80
2024/04/24 02:38:28;;;;;;;10.55;2.70;;;4.40;99.90;;;;;;5336795;26;20001;-80
2024/04/24 02:40:54;;;;;;;12.73;3.00;;;4.40;99.90;;;;;;5332205;26;20010;-80
2024/04/24 02:43:20;;;;;;;12.95;3.00;;;4.40;99.90;;;;;;5333715;26;20016;-80
2024/04/24 02:45:46;;;;;;;13.38;2.92;;;4.40;99.90;;;;;;5326541;26;20013;-80
2024/04/24 02:48:12;;;;;;;12.75;2.80;;;4.40;99.90;;;;;;5334332;26;20016;-81
2024/04/24 02:50:38;;;;;;;12.25;2.88;;;4.40;99.90;;;;;;5330387;26;20029;-80
2024/04/24 02:53:04;;;;;;;13.65;3.33;;;4.40;99.90;;;;;;5329763;26;20036;-81
2024/04/24 02:55:31;;;;;;;12.63;2.78;;;4.40;99.90;;;;;;5334138;26;20005;-81
2024/04/24 02:57:57;;;;;;;14.82;3.22;;;4.50;99.90;;;;;;5334893;26;20020;-80
2024/04/24 03:00:23;;;;;;;10.98;3.30;;;4.30;99.90;;;;;;5361378;26;20529;-80
2024/04/24 03:02:49;;;;;;;10.73;3.13;;;4.30;99.90;;;;;;5332869;26;20021;-80
2024/04/24 03:05:15;;;;;;;10.98;2.80;;;4.20;99.90;;;;;;5333077;26;20012;-80
2024/04/24 03:07:40;;;;;;;10.48;2.67;;;4.30;99.90;;;;;;5331225;26;20071;-80
2024/04/24 03:10:07;;;;;;;11.27;2.88;;;4.30;99.90;;;;;;5333019;26;20013;-80
2024/04/24 03:12:52;;;;;;;12.27;2.60;;;4.30;99.90;;;;;;5328767;26;20020;-80
2024/04/24 03:15:18;;;;;;;11.98;2.42;;;4.30;99.90;;;;;;5334639;26;20016;-80
2024/04/24 03:17:44;;;;;;;11.38;2.58;;;4.30;99.90;;;;;;5333152;26;20001;-80
2024/04/24 03:20:10;;;;;;;12.13;2.42;;;4.30;99.90;;;;;;5332846;26;20005;-80
2024/04/24 03:22:36;;;;;;;9.27;2.55;;;4.20;99.90;;;;;;5330330;26;20017;-80
2024/04/24 03:25:01;;;;;;;12.52;2.35;;;4.20;99.90;;;;;;5330046;26;20019;-80
2024/04/24 03:27:27;;;;;;;14.52;2.65;;;4.20;99.90;;;;;;5335508;26;20017;-80
2024/04/24 03:29:53;;;;;;;8.75;2.50;;;4.30;99.90;;;;;;5331225;26;20001;-80
2024/04/24 03:32:19;;;;;;;14.32;3.00;;;4.20;99.90;;;;;;5334274;26;20009;-81
2024/04/24 03:34:45;;;;;;;9.93;2.90;;;4.20;99.90;;;;;;5330615;26;20374;-80
2024/04/24 03:37:11;;;;;;;9.90;2.63;;;4.20;99.90;;;;;;5336019;26;20004;-80
2024/04/24 03:39:37;;;;;;;14.05;2.63;;;4.20;99.90;;;;;;5331493;26;20371;-81
2024/04/24 03:42:03;;;;;;;12.40;2.72;;;4.20;99.90;;;;;;5337445;26;20009;-81
2024/04/24 03:44:39;;;;;;;11.85;2.65;;;4.30;99.90;;;;;;5337259;26;20478;-81
2024/04/24 03:47:05;;;;;;;13.00;2.45;;;4.30;99.90;;;;;;5333852;26;20009;-80
2024/04/24 03:49:31;;;;;;;8.95;2.45;;;4.30;99.90;;;;;;5336217;26;20009;-81
2024/04/24 03:51:57;;;;;;;11.35;2.60;;;4.20;99.90;;;;;;5334542;26;20009;-81
2024/04/24 03:54:23;;;;;;;9.50;2.60;;;4.10;99.90;;;;;;5335554;26;20017;-80
2024/04/24 03:56:49;;;;;;;13.38;3.00;;;4.20;99.90;;;;;;5328535;26;20013;-80
2024/04/24 03:59:15;;;;;;;11.93;2.75;;;4.20;99.90;;;;;;5337156;26;20083;-80
2024/04/24 04:01:41;;;;;;;13.15;2.97;;;4.20;99.90;;;;;;5328134;26;20016;-81
2024/04/24 04:04:07;;;;;;;14.80;3.10;;;4.20;99.90;;;;;;5326093;26;20012;-80
2024/04/24 04:06:33;;;;;;;13.80;3.00;;;4.20;99.90;;;;;;5329557;26;20060;-80
2024/04/24 04:08:59;;;;;;;9.45;2.65;;;4.20;99.90;;;;;;5334341;26;20036;-80
2024/04/24 04:11:25;;;;;;;13.15;3.13;;;4.20;99.90;;;;;;5330073;26;20012;-81
2024/04/24 04:13:53;;;;;;;13.32;3.28;;;4.30;99.90;;;;;;5327583;26;20016;-81
2024/04/24 04:16:19;;;;;;;14.43;2.92;;;4.30;99.90;;;;;;5320511;26;20009;-80
2024/04/24 04:18:45;;;;;;;13.05;2.75;;;4.30;99.90;;;;;;5331331;26;20016;-80
2024/04/24 04:21:11;;;;;;;9.55;3.10;;;4.30;99.90;;;;;;5339719;26;20012;-80
2024/04/24 04:23:37;;;;;;;16.58;3.42;;;4.30;99.90;;;;;;5337156;26;20095;-80
2024/04/24 04:26:03;;;;;;;16.38;3.97;;;4.40;99.90;;;;;;5321348;26;20024;-80
2024/04/24 04:28:29;;;;;;;16.00;4.57;;;4.40;99.90;;;;;;5330570;26;20009;-80
2024/04/24 04:30:55;;;;;;;15.38;3.22;;;4.40;99.90;;;;;;5326344;26;20395;-80
2024/04/24 04:33:20;;;;;;;16.73;3.88;;;4.40;99.90;;;;;;5333133;26;20005;-80
2024/04/24 04:35:46;;;;;;;11.20;2.97;;;4.40;99.90;;;;;;5335550;26;20009;-80
2024/04/24 04:38:12;;;;;;;15.75;3.95;;;4.50;99.90;;;;;;5332605;26;20435;-80
2024/04/24 04:40:38;;;;;;;13.85;3.40;;;4.50;99.90;;;;;;5338931;26;20478;-81
2024/04/24 04:43:04;;;;;;;15.90;4.05;;;4.50;99.90;;;;;;5330807;26;20009;-80
2024/04/24 04:45:30;;;;;;;10.68;3.35;;;4.60;99.90;;;;;;5323827;26;20028;-81
2024/04/24 04:47:56;;;;;;;13.18;4.00;;;4.60;99.90;;;;;;5332934;26;20016;-81
2024/04/24 04:50:22;;;;;;;14.20;3.92;;;4.60;99.90;;;;;;5333442;26;20005;-80
2024/04/24 04:52:48;;;;;;;12.13;3.40;;;4.60;99.90;;;;;;5330725;26;20010;-81
2024/04/24 04:55:14;;;;;;;17.73;3.85;;;4.70;99.90;;;;;;5324980;26;20012;-80
2024/04/24 04:57:40;;;;;;;18.67;4.68;;;4.70;99.90;;;;;;5354287;26;20012;-80
2024/04/24 05:00:07;;;;;;;12.38;2.83;;;4.70;99.90;;;;;;5333210;26;20041;-81
2024/04/24 05:02:33;;;;;;;12.63;3.30;;;4.80;99.90;;;;;;5339937;26;20017;-80
2024/04/24 05:04:59;;;;;;;10.35;3.20;;;4.80;99.90;;;;;;5313502;26;20762;-81
2024/04/24 05:07:25;;;;;;;14.15;3.58;;;4.80;99.90;;;;;;5334893;26;20001;-81
2024/04/24 05:09:50;;;;;;;13.73;3.35;;;4.80;99.90;;;;;;5327875;26;20020;-80
2024/04/24 05:12:16;;;;;;;9.77;2.70;;;4.90;99.90;;;;;;5331566;26;20364;-81
2024/04/24 05:14:42;;;;;;;11.30;2.88;;;4.90;99.90;;;;;;5333929;26;20001;-81
2024/04/24 05:17:08;;;;;;;5.50;1.73;;;4.90;99.90;;;;;;5334704;26;20064;-82
2024/04/24 05:19:34;;;;;;;5.57;1.98;;;4.90;99.90;;;;;;5329099;26;20010;-81
2024/04/24 05:22:00;;;;;;;3.42;1.23;;;4.90;99.90;;;;;;5330566;26;20012;-80
2024/04/24 05:24:25;;;;;;;4.28;1.30;;;4.80;99.90;;;;;;5332564;26;20443;-81
2024/04/24 05:29:36;;;;;;;4.45;1.30;;;4.60;99.90;;;;;;5334049;26;20017;-83
2024/04/24 05:32:02;;;;;;;3.13;1.38;;;4.50;99.90;;;;;;5334152;26;20344;-82
2024/04/24 05:34:28;;;;;;;2.53;1.38;;;4.40;99.90;;;;;;5307061;26;20005;-81
2024/04/24 05:36:54;;;;;;;3.60;1.30;;;4.40;99.90;;;;;;5332397;26;20027;-80
2024/04/24 05:39:19;;;;;;;3.05;1.10;;;4.30;99.90;;;;;;5334665;26;20020;-81
2024/04/24 05:41:45;;;;;;;5.07;1.20;;;4.30;99.90;;;;;;5334806;26;20001;-82
2024/04/24 05:44:11;;;;;;;4.75;1.48;;;4.30;99.90;;;;;;5329779;26;20095;-81
2024/04/24 05:46:37;;;;;;;5.15;1.30;;;4.30;99.90;;;;;;5333547;26;20845;-82
2024/04/24 05:49:03;;;;;;;3.28;1.40;;;4.40;99.90;;;;;;5330643;26;20009;-82
2024/04/24 05:51:29;;;;;;;3.92;1.10;;;4.40;99.90;;;;;;5334156;26;20099;-82
2024/04/24 05:53:55;;;;;;;6.47;1.95;;;4.50;99.90;;;;;;5338171;26;20016;-81
2024/04/24 05:56:21;;;;;;;3.72;1.60;;;4.50;99.90;;;;;;5329077;26;20020;-82
2024/04/24 05:58:48;;;;;;;7.22;1.60;;;4.50;99.90;;;;;;5335203;26;20012;-83
2024/04/24 06:01:14;;;;;;;5.20;1.50;;;4.60;99.90;;;;;;5331111;26;20013;-82
2024/04/24 06:03:40;;;;;;;3.97;1.40;;;4.70;99.90;;;;;;5331737;26;20501;-81
2024/04/24 06:06:08;;;;;;;3.78;1.35;;;4.70;99.90;;;;;;5335407;26;20491;-82
2024/04/24 06:08:34;;;;;;;6.15;1.75;;;4.70;99.90;;;;;;5332660;26;20016;-82
2024/04/24 06:11:00;;;;;;;7.28;1.92;;;4.80;99.90;;;;;;5328703;26;20015;-83
2024/04/24 06:13:26;;;;;;;5.50;1.88;;;4.70;99.90;;;;;;5326518;26;20016;-82
2024/04/24 06:15:54;;;;;;;6.03;1.95;;;4.70;99.90;;;;;;5334272;26;20351;-81
2024/04/24 06:18:20;;;;;;;3.15;1.55;;;4.80;99.90;;;;;;5332987;26;20001;-82
2024/04/24 06:20:46;;;;;;;5.43;1.75;;;4.90;99.90;;;;;;5336680;26;20020;-82
2024/04/24 06:23:12;;;;;;;5.80;1.70;;;4.90;99.90;;;;;;5333960;26;20005;-82
2024/04/24 06:25:38;;;;;;;6.50;1.98;;;5.00;99.90;;;;;;5336360;26;19997;-82
2024/04/24 06:28:04;;;;;;;6.60;1.90;;;5.00;99.90;;;;;;5334323;26;20068;-82
2024/04/24 06:30:30;;;;;;;7.00;2.15;;;5.00;99.90;;;;;;5329936;26;20009;-82
2024/04/24 06:32:56;;;;;;;6.25;2.38;;;5.00;99.90;;;;;;5332978;26;20009;-82
2024/04/24 06:35:22;;;;;;;6.22;1.90;;;5.00;99.90;;;;;;5338103;26;20055;-81
2024/04/24 06:37:48;;;;;;;3.95;1.67;;;5.00;99.90;;;;;;5331452;26;20348;-81
2024/04/24 06:40:14;;;;;;;7.25;1.77;;;5.10;99.90;;;;;;5336575;26;20005;-82
2024/04/24 06:42:39;;;;;;;7.40;1.83;;;5.10;99.90;;;;;;5359632;26;20389;-82
2024/04/24 06:45:06;;;;;;;10.50;2.75;;;5.20;99.90;;;;;;5359212;26;20020;-83
2024/04/24 06:47:32;;;;;;;8.73;2.45;;;5.30;99.90;;;;;;5335103;26;20001;-82
2024/04/24 06:49:58;;;;;;;7.05;2.97;;;5.50;99.90;;;;;;5334515;26;20453;-82
2024/04/24 06:52:23;;;;;;;8.82;2.60;;;5.60;99.90;;;;;;5330278;26;20012;-82
2024/04/24 06:54:49;;;;;;;10.27;3.63;;;5.80;99.90;;;;;;5337433;26;20079;-82
2024/04/24 06:57:16;;;;;;;8.88;3.03;;;5.90;99.90;;;;;;5333126;26;20008;-81
2024/04/24 06:59:46;;;;;;;9.15;3.30;;;6.10;99.90;;;;;;5330161;26;20042;-82
2024/04/24 07:02:12;;;;;;;12.85;3.38;;;6.20;99.90;;;;;;5335127;26;20024;-82
2024/04/24 07:04:38;;;;;;;9.80;2.85;;;6.30;99.90;;;;;;5334437;26;20013;-82
2024/04/24 07:07:05;;;;;;;9.40;3.10;;;6.40;99.90;;;;;;5333146;26;20016;-81
2024/04/24 07:09:31;;;;;;;10.40;2.72;;;6.50;99.90;;;;;;5335345;26;20357;-82
2024/04/24 07:11:57;;;;;;;7.82;2.40;;;6.60;99.90;;;;;;5336065;26;20090;-83
2024/04/24 07:14:23;;;;;;;6.80;2.33;;;6.70;99.90;;;;;;5332078;26;20016;-82
2024/04/24 07:16:49;;;;;;;7.40;2.47;;;6.80;99.90;;;;;;5333719;26;20002;-83
2024/04/24 07:19:15;;;;;;;8.82;2.15;;;6.80;99.90;;;;;;5333453;26;20012;-82
2024/04/24 07:21:41;;;;;;;8.02;2.67;;;6.90;99.90;;;;;;5335957;26;20479;-83
2024/04/24 07:24:07;;;;;;;8.15;2.10;;;6.90;99.90;;;;;;5333223;26;20454;-83
2024/04/24 07:26:33;;;;;;;7.60;2.35;;;7.00;99.90;;;;;;5334335;26;20009;-83
2024/04/24 07:28:59;;;;;;;7.68;2.10;;;7.10;99.90;;;;;;5333276;26;20017;-82
2024/04/24 07:31:25;;;;;;;8.27;2.97;;;7.10;99.90;;;;;;5332085;26;20341;-83
2024/04/24 07:33:51;;;;;;;9.38;2.83;;;7.00;99.90;;;;;;5334002;26;20012;-84
2024/04/24 07:36:17;;;;;;;8.73;2.00;;;7.00;99.90;;;;;;5330319;26;20005;-83
2024/04/24 07:38:45;;;;;;;8.48;2.20;;;6.80;99.90;;;;;;5336782;26;20023;-83
2024/04/24 07:41:12;;;;;;;7.10;2.20;;;6.70;99.90;;;;;;5332299;26;20479;-83
2024/04/24 07:43:37;;;;;;;9.50;1.88;;;6.60;99.90;;;;;;5336560;26;20422;-82
2024/04/24 07:46:05;;;;;;;4.25;1.40;;;6.60;99.90;;;;;;5331028;26;19997;-82
2024/04/24 07:48:31;;;;;;;5.63;1.67;;;6.50;99.90;;;;;;5331421;26;20016;-81
2024/04/24 07:50:57;;;;;;;5.13;1.50;;;6.40;99.90;;;;;;5332882;26;20008;-82
2024/04/24 07:53:23;;;;;;;5.45;1.35;;;6.40;99.90;;;;;;5300018;26;20005;-83
2024/04/24 07:55:49;;;;;;;8.40;1.60;;;6.40;99.90;;;;;;5337263;26;20677;-82
2024/04/24 07:58:15;;;;;;;8.15;2.03;;;6.50;99.90;;;;;;5334152;26;20439;-82
2024/04/24 08:00:41;;;;;;;4.93;1.42;;;6.60;99.90;;;;;;5391534;26;20913;-82
2024/04/24 08:03:07;;;;;;;4.60;1.33;;;6.70;99.90;;;;;;5333456;26;20475;-82
2024/04/24 08:05:33;;;;;;;4.60;1.30;;;6.90;99.90;;;;;;5324796;26;20325;-82
2024/04/24 08:07:59;;;;;;;6.47;1.35;;;7.20;99.90;;;;;;5328695;26;20009;-82
2024/04/24 08:10:25;;;;;;;3.53;1.13;;;7.30;99.90;;;;;;5315324;26;20021;-82
2024/04/24 08:12:51;;;;;;;5.05;1.38;;;7.60;99.90;;;;;;5338391;26;20001;-84
2024/04/24 08:15:17;;;;;;;5.28;1.60;;;7.70;99.90;;;;;;5364428;26;20005;-85
2024/04/24 08:17:44;;;;;;;5.97;1.40;;;7.80;99.90;;;;;;5334711;26;20013;-86
2024/04/24 08:20:10;;;;;;;5.00;1.50;;;7.50;99.90;;;;;;5338417;26;20005;-86
2024/04/24 08:22:37;;;;;;;6.88;1.88;;;7.10;99.90;;;;;;5330302;26;20002;-84
2024/04/24 08:25:03;;;;;;;2.72;1.10;;;6.90;99.90;;;;;;5329116;26;20009;-84
2024/04/24 08:27:29;;;;;;;4.70;1.23;;;6.70;99.90;;;;;;5331944;26;20064;-84
2024/04/24 08:29:54;;;;;;;5.05;1.20;;;6.60;99.90;;;;;;5336780;26;20410;-85
2024/04/24 08:32:20;;;;;;;3.85;1.15;;;6.50;99.90;;;;;;5329611;26;20009;-83
2024/04/24 08:34:46;;;;;;;6.47;1.50;;;6.40;99.90;;;;;;5336443;26;20009;-85
2024/04/24 08:37:12;;;;;;;6.85;1.10;;;6.50;99.90;;;;;;5336395;26;20382;-84
2024/04/24 08:39:38;;;;;;;4.32;1.10;;;6.60;99.90;;;;;;5331593;26;20617;-84
2024/04/24 08:42:04;;;;;;;3.35;1.00;;;6.70;99.90;;;;;;5332449;26;20028;-82
2024/04/24 08:44:31;;;;;;;5.05;1.05;;;7.20;99.90;;;;;;5365860;26;20369;-82
2024/04/24 08:46:57;;;;;;;3.92;0.95;;;7.60;99.90;;;;;;5335063;26;20020;-83
2024/04/24 08:49:24;;;;;;;3.28;0.98;;;7.60;99.90;;;;;;5334518;26;20009;-82
2024/04/24 08:51:50;;;;;;;3.85;0.73;;;7.60;99.90;;;;;;5333646;26;20009;-83
2024/04/24 08:54:18;;;;;;;8.18;1.10;;;7.50;99.90;;;;;;5333307;26;20086;-85
2024/04/24 08:56:56;;;;;;;5.18;1.17;;;7.40;99.90;;;;;;5332685;26;20009;-84
2024/04/24 08:59:26;;;;;;;5.70;1.15;;;7.30;99.90;;;;;;5333180;26;20079;-83
2024/04/24 09:02:06;;;;;;;6.18;1.35;;;7.20;99.90;;;;;;5323517;26;20063;-86
2024/04/24 09:04:37;;;;;;;6.90;1.17;;;7.10;99.90;;;;;;5336135;26;20008;-83
2024/04/24 09:07:07;;;;;;;7.50;2.33;;;7.10;99.90;;;;;;5361807;26;20104;-83
2024/04/24 09:09:34;;;;;;;5.55;1.27;;;7.10;99.90;;;;;;5332442;26;20026;-84
2024/04/24 09:12:03;;;;;;;7.05;1.80;;;7.10;99.90;;;;;;5361682;26;20009;-83
2024/04/24 09:14:31;;;;;;;8.05;1.27;;;7.10;99.90;;;;;;5331705;26;20008;-82
2024/04/24 09:16:57;;;;;;;8.70;1.75;;;7.20;99.90;;;;;;5333072;26;20024;-83
2024/04/24 09:19:23;;;;;;;8.55;1.52;;;7.30;99.90;;;;;;5336089;26;20008;-82
2024/04/24 09:21:50;;;;;;;10.70;1.75;;;7.40;99.90;;;;;;5332702;26;20578;-83
2024/04/24 09:24:19;;;;;;;6.82;1.90;;;7.50;99.90;;;;;;5337025;26;20028;-82
2024/04/24 09:26:47;;;;;;;8.65;2.08;;;7.70;99.90;;;;;;5333761;26;20534;-81
2024/04/24 09:29:14;;;;;;;7.13;1.80;;;8.10;99.90;;;;;;5332649;26;20009;-82
2024/04/24 09:31:40;;;;;;;7.45;1.58;;;8.40;99.90;;;;;;5331260;26;20016;-83
2024/04/24 09:34:10;;;;;;;11.07;2.15;;;8.60;99.90;;;;;;5333441;26;20496;-84
2024/04/24 09:36:41;;;;;;;8.05;2.20;;;8.60;99.90;;;;;;5333931;26;20001;-84
2024/04/24 09:39:07;;;;;;;6.38;1.55;;;8.50;99.90;;;;;;5334069;26;20005;-85
2024/04/24 09:41:37;;;;;;;6.93;2.00;;;8.30;99.90;;;;;;5337204;26;20012;-84
2024/04/24 09:44:03;;;;;;;6.50;1.70;;;8.20;99.90;;;;;;5330630;26;20029;-83
2024/04/24 09:46:29;;;;;;;5.22;1.48;;;8.10;99.90;;;;;;5335637;26;20478;-82
2024/04/24 09:48:55;;;;;;;6.82;0.98;;;8.40;99.90;;;;;;5336928;26;20012;-83
2024/04/24 09:51:21;;;;;;;4.90;0.82;;;8.70;99.90;;;;;;5333270;26;20093;-83
2024/04/24 09:53:50;;;;;;;4.53;0.80;;;8.90;99.90;;;;;;5328706;26;19998;-82
2024/04/24 09:56:23;;;;;;;3.50;0.90;;;9.10;99.90;;;;;;5338741;26;20009;-83
2024/04/24 09:58:53;;;;;;;4.47;1.00;;;9.20;99.90;;;;;;5359297;26;20481;-85
2024/04/24 10:01:22;;;;;;;3.40;0.90;;;9.10;99.90;;;;;;5326260;26;20006;-80
2024/04/24 10:03:51;;;;;;;3.55;0.63;;;8.80;99.90;;;;;;5387316;26;20015;-81
2024/04/24 10:06:21;;;;;;;2.70;0.63;;;8.30;99.90;;;;;;5333595;26;20359;-84
2024/04/24 10:08:52;;;;;;;2.47;0.90;;;8.00;99.90;;;;;;5331034;26;20001;-83
2024/04/24 10:11:23;;;;;;;5.63;1.10;;;7.80;99.90;;;;;;5329886;26;20699;-84
2024/04/24 10:13:51;;;;;;;3.38;0.95;;;7.70;99.90;;;;;;5334406;26;20032;-85
2024/04/24 10:16:17;;;;;;;7.65;1.30;;;7.80;99.90;;;;;;5326822;26;20462;-81
2024/04/24 10:18:45;;;;;;;7.00;1.45;;;7.80;99.90;;;;;;5322034;26;20092;-83
2024/04/24 10:21:12;;;;;;;5.47;1.10;;;7.80;99.90;;;;;;5331269;26;20015;-82
2024/04/24 10:23:39;;;;;;;6.70;1.33;;;7.70;99.90;;;;;;5313394;26;20255;-84
2024/04/24 10:26:06;;;;;;;2.33;0.88;;;7.70;99.90;;;;;;5329081;26;20001;-82
2024/04/24 10:28:32;;;;;;;6.45;1.13;;;7.70;99.90;;;;;;5311847;26;20022;-81
2024/04/24 10:31:01;;;;;;;3.92;0.98;;;7.70;99.90;;;;;;5321168;26;20431;-85
2024/04/24 10:33:30;;;;;;;2.05;0.50;;;7.70;99.90;;;;;;5331651;26;20009;-82
2024/04/24 10:35:56;;;;;;;2.78;0.70;;;7.50;99.90;;;;;;5330081;26;19998;-82
2024/04/24 10:38:25;;;;;;;3.83;1.58;;;7.70;99.90;;;;;;5321143;26;20001;-82
2024/04/24 10:40:51;;;;;;;6.00;1.30;;;8.00;99.90;;;;;;5337881;26;20042;-83
2024/04/24 10:43:22;;;;;;;4.78;1.15;;;8.20;99.90;;;;;;5331133;26;20031;-84
2024/04/24 10:45:53;;;;;;;11.27;3.90;;;8.60;99.90;;;;;;5336514;26;20008;-80
2024/04/24 10:48:19;;;;;;;;;;;8.80;99.90;;;;;;5341173;26;20019;-80
2024/04/24 10:50:50;;;;;;;2.15;0.80;;;9.20;99.90;;;;;;5326079;26;20384;-82
2024/04/24 10:53:18;;;;;;;3.55;1.00;;;9.40;99.90;;;;;;5326266;26;20033;-81
2024/04/24 10:55:58;;;;;;;4.38;0.90;;;9.60;99.90;;;;;;5324142;26;20005;-81
2024/04/24 10:58:23;;;;;;;3.58;1.33;;;9.70;99.90;;;;;;5337334;26;20434;-81
2024/04/24 11:00:50;;;;;;;4.72;0.95;;;9.90;99.90;;;;;;5331246;26;20009;-82
2024/04/24 11:03:17;;;;;;;2.53;1.05;;;9.80;99.90;;;;;;5327885;26;20480;-81
2024/04/24 11:05:44;;;;;;;5.07;0.90;;;9.60;99.90;;;;;;5360237;26;20005;-81
2024/04/24 11:08:15;;;;;;;3.75;0.93;;;9.50;99.90;;;;;;5338656;26;20037;-81
2024/04/24 11:10:50;;;;;;;3.15;0.80;;;9.30;99.90;;;;;;5335853;26;20040;-80
2024/04/24 11:13:16;;;;;;;1.70;0.50;;;9.10;99.90;;;;;;5316598;26;20004;-81
2024/04/24 11:15:42;;;;;;;1.67;0.35;;;9.00;99.90;;;;;;5325879;26;20005;-81
2024/04/24 11:18:10;;;;;;;2.10;0.68;;;9.00;99.90;;;;;;5330009;26;20005;-81
2024/04/24 11:20:37;;;;;;;2.03;0.55;;;9.00;99.90;;;;;;5336577;26;20020;-83
2024/04/24 11:23:09;;;;;;;1.60;0.32;;;9.10;99.90;;;;;;5338261;26;20475;-81
2024/04/24 11:25:38;;;;;;;1.52;0.40;;;9.20;99.90;;;;;;5334333;26;20467;-81
2024/04/24 11:28:04;;;;;;;1.15;0.45;;;9.20;99.90;;;;;;5317852;26;20014;-79
2024/04/24 11:30:33;;;;;;;2.95;0.50;;;9.40;99.90;;;;;;5330169;26;20017;-81
2024/04/24 11:32:59;;;;;;;4.43;0.70;;;9.50;99.90;;;;;;5334062;26;20001;-80
2024/04/24 11:35:26;;;;;;;2.45;0.73;;;9.60;99.90;;;;;;5348308;26;20005;-80
2024/04/24 11:37:52;;;;;;;5.57;0.50;;;9.80;99.90;;;;;;5316592;26;20016;-81
2024/04/24 11:40:19;;;;;;;1.50;0.65;;;10.00;99.90;;;;;;5337056;26;20005;-81
2024/04/24 11:42:46;;;;;;;1.48;0.52;;;10.30;99.90;;;;;;5339469;26;20009;-81
2024/04/24 11:45:12;;;;;;;2.88;0.70;;;10.50;99.90;;;;;;5323805;26;20101;-81
2024/04/24 11:47:38;;;;;;;3.38;0.80;;;10.60;99.90;;;;;;5331216;26;20023;-80
2024/04/24 11:50:07;;;;;;;3.97;1.00;;;10.70;99.90;;;;;;5341086;26;20005;-81
2024/04/24 11:52:37;;;;;;;3.50;0.85;;;10.80;99.90;;;;;;5339916;26;20009;-81
2024/04/24 11:55:03;;;;;;;4.40;1.20;;;10.70;99.90;;;;;;5340856;26;20019;-82
2024/04/24 11:57:39;;;;;;;3.67;1.10;;;10.30;99.90;;;;;;5338126;26;20008;-82
2024/04/24 12:00:07;;;;;;;3.55;1.20;;;9.80;99.90;;;;;;5318094;26;20351;-82
2024/04/24 12:02:34;;;;;;;5.25;1.00;;;9.40;99.90;;;;;;5323273;26;20009;-81
2024/04/24 12:05:05;;;;;;;3.85;1.05;;;9.10;99.90;;;;;;5337253;26;20020;-82
2024/04/24 12:07:32;;;;;;;6.03;1.85;;;8.90;99.90;;;;;;5330941;26;20008;-80
2024/04/24 12:09:59;;;;;;;6.40;1.55;;;8.80;99.90;;;;;;5335491;26;20005;-81
2024/04/24 12:12:25;;;;;;;3.85;1.08;;;8.90;99.90;;;;;;5340960;26;20020;-81
2024/04/24 12:14:55;;;;;;;5.10;1.48;;;9.10;99.90;;;;;;5336012;26;20031;-81
2024/04/24 12:17:21;;;;;;;6.45;1.27;;;9.40;99.90;;;;;;5315594;26;20009;-80
2024/04/24 12:19:47;;;;;;;6.47;1.42;;;9.70;99.90;;;;;;5328689;26;20024;-80
2024/04/24 12:22:13;;;;;;;8.60;1.40;;;9.90;99.90;;;;;;5338370;26;20356;-82
2024/04/24 12:24:39;;;;;;;5.20;1.80;;;10.10;99.90;;;;;;5320622;26;20009;-81
2024/04/24 12:27:05;;;;;;;6.53;1.20;;;10.30;99.90;;;;;;5317790;26;20021;-81
2024/04/24 12:29:31;;;;;;;5.35;1.40;;;10.40;99.90;;;;;;5326910;26;20500;-80
2024/04/24 12:31:58;;;;;;;5.13;1.30;;;10.40;99.90;;;;;;5345124;26;20016;-80
2024/04/24 12:34:24;;;;;;;5.03;1.38;;;10.50;99.90;;;;;;5336763;26;20019;-81
2024/04/24 12:36:56;;;;;;;6.65;1.77;;;10.30;99.90;;;;;;5340121;26;20009;-81
2024/04/24 12:39:22;;;;;;;6.50;1.13;;;10.00;99.90;;;;;;5338229;26;19997;-80
2024/04/24 12:41:49;;;;;;;4.82;1.10;;;9.90;99.90;;;;;;5328959;26;20023;-81
2024/04/24 12:44:15;;;;;;;7.95;1.50;;;10.00;99.90;;;;;;5319934;26;20010;-81
2024/04/24 12:46:42;;;;;;;5.85;0.98;;;10.00;99.90;;;;;;5339510;26;20474;-80
2024/04/24 12:49:07;;;;;;;3.00;1.02;;;10.10;99.90;;;;;;5349336;26;20041;-82
2024/04/24 12:51:34;;;;;;;5.72;1.27;;;10.30;99.90;;;;;;5339879;26;20017;-80
2024/04/24 12:54:00;;;;;;;4.90;1.60;;;10.30;99.90;;;;;;5334975;26;20028;-81